sensor_id;sensor_type;location;lat;lon;timestamp;P1;durP1;ratioP1;P2;durP2;ratioP2
43504;SDS011;29098;48.184;16.298;2024-01-11T00:00:20;41.40;;;21.90;;
43504;SDS011;29098;48.184;16.298;2024-01-11T00:02:45;39.92;;;20.98;;
43504;SDS011;29098;48.184;16.298;2024-01-11T00:05:11;40.63;;;20.48;;
43504;SDS011;29098;48.184;16.298;2024-01-11T00:07:36;40.22;;;19.42;;
43504;SDS011;29098;48.184;16.298;2024-01-11T00:10:02;42.35;;;19.90;;
43504;SDS011;29098;48.184;16.298;2024-01-11T00:12:28;41.05;;;19.80;;
43504;SDS011;29098;48.184;16.298;2024-01-11T00:14:56;43.47;;;21.85;;
43504;SDS011;29098;48.184;16.298;2024-01-11T00:17:23;39.33;;;17.63;;
43504;SDS011;29098;48.184;16.298;2024-01-11T00:19:50;43.70;;;19.13;;
43504;SDS011;29098;48.184;16.298;2024-01-11T00:22:15;37.00;;;18.65;;
43504;SDS011;29098;48.184;16.298;2024-01-11T00:24:41;39.55;;;20.00;;
43504;SDS011;29098;48.184;16.298;2024-01-11T00:27:07;39.65;;;19.77;;
43504;SDS011;29098;48.184;16.298;2024-01-11T00:29:33;45.33;;;19.38;;
43504;SDS011;29098;48.184;16.298;2024-01-11T00:32:00;38.97;;;19.40;;
43504;SDS011;29098;48.184;16.298;2024-01-11T00:34:26;38.60;;;19.30;;
43504;SDS011;29098;48.184;16.298;2024-01-11T00:36:51;40.78;;;19.13;;
43504;SDS011;29098;48.184;16.298;2024-01-11T00:39:17;37.38;;;19.08;;
43504;SDS011;29098;48.184;16.298;2024-01-11T00:41:42;35.05;;;18.25;;
43504;SDS011;29098;48.184;16.298;2024-01-11T00:44:08;38.47;;;19.08;;
43504;SDS011;29098;48.184;16.298;2024-01-11T00:46:34;39.28;;;18.65;;
43504;SDS011;29098;48.184;16.298;2024-01-11T00:49:00;32.85;;;18.63;;
43504;SDS011;29098;48.184;16.298;2024-01-11T00:51:25;32.03;;;17.58;;
43504;SDS011;29098;48.184;16.298;2024-01-11T00:53:51;37.92;;;18.15;;
43504;SDS011;29098;48.184;16.298;2024-01-11T00:56:17;34.72;;;16.45;;
43504;SDS011;29098;48.184;16.298;2024-01-11T00:58:43;35.22;;;16.13;;
43504;SDS011;29098;48.184;16.298;2024-01-11T01:01:09;38.35;;;17.52;;
43504;SDS011;29098;48.184;16.298;2024-01-11T01:03:34;39.22;;;16.33;;
43504;SDS011;29098;48.184;16.298;2024-01-11T01:06:01;33.60;;;15.27;;
43504;SDS011;29098;48.184;16.298;2024-01-11T01:08:27;35.20;;;18.17;;
43504;SDS011;29098;48.184;16.298;2024-01-11T01:10:52;28.55;;;16.65;;
43504;SDS011;29098;48.184;16.298;2024-01-11T01:13:18;33.50;;;17.08;;
43504;SDS011;29098;48.184;16.298;2024-01-11T01:15:43;32.10;;;16.23;;
43504;SDS011;29098;48.184;16.298;2024-01-11T01:18:09;32.90;;;16.23;;
43504;SDS011;29098;48.184;16.298;2024-01-11T01:20:34;35.22;;;17.40;;
43504;SDS011;29098;48.184;16.298;2024-01-11T01:23:00;32.40;;;16.42;;
43504;SDS011;29098;48.184;16.298;2024-01-11T01:25:25;31.52;;;17.75;;
43504;SDS011;29098;48.184;16.298;2024-01-11T01:27:51;32.10;;;17.10;;
43504;SDS011;29098;48.184;16.298;2024-01-11T01:30:16;30.35;;;16.23;;
43504;SDS011;29098;48.184;16.298;2024-01-11T01:32:42;34.10;;;17.65;;
43504;SDS011;29098;48.184;16.298;2024-01-11T01:35:10;32.60;;;17.48;;
43504;SDS011;29098;48.184;16.298;2024-01-11T01:37:36;33.25;;;17.02;;
43504;SDS011;29098;48.184;16.298;2024-01-11T01:40:02;34.25;;;17.50;;
43504;SDS011;29098;48.184;16.298;2024-01-11T01:42:28;39.33;;;18.67;;
43504;SDS011;29098;48.184;16.298;2024-01-11T01:44:53;37.30;;;17.55;;
43504;SDS011;29098;48.184;16.298;2024-01-11T01:47:19;34.60;;;17.85;;
43504;SDS011;29098;48.184;16.298;2024-01-11T01:49:45;31.88;;;16.50;;
43504;SDS011;29098;48.184;16.298;2024-01-11T01:52:13;38.05;;;16.85;;
43504;SDS011;29098;48.184;16.298;2024-01-11T01:54:41;36.33;;;18.40;;
43504;SDS011;29098;48.184;16.298;2024-01-11T01:57:07;37.00;;;19.85;;
43504;SDS011;29098;48.184;16.298;2024-01-11T01:59:34;33.47;;;16.73;;
43504;SDS011;29098;48.184;16.298;2024-01-11T02:02:02;32.20;;;16.98;;
43504;SDS011;29098;48.184;16.298;2024-01-11T02:04:29;36.22;;;16.83;;
43504;SDS011;29098;48.184;16.298;2024-01-11T02:06:55;38.20;;;17.58;;
43504;SDS011;29098;48.184;16.298;2024-01-11T02:09:21;36.17;;;17.23;;
43504;SDS011;29098;48.184;16.298;2024-01-11T02:11:48;31.10;;;15.98;;
43504;SDS011;29098;48.184;16.298;2024-01-11T02:14:17;34.45;;;16.92;;
43504;SDS011;29098;48.184;16.298;2024-01-11T02:16:42;35.38;;;16.90;;
43504;SDS011;29098;48.184;16.298;2024-01-11T02:19:08;36.53;;;17.50;;
43504;SDS011;29098;48.184;16.298;2024-01-11T02:21:37;32.75;;;17.40;;
43504;SDS011;29098;48.184;16.298;2024-01-11T02:24:03;30.52;;;16.17;;
43504;SDS011;29098;48.184;16.298;2024-01-11T02:26:30;32.75;;;17.13;;
43504;SDS011;29098;48.184;16.298;2024-01-11T02:28:55;33.38;;;16.35;;
43504;SDS011;29098;48.184;16.298;2024-01-11T02:31:21;35.70;;;18.65;;
43504;SDS011;29098;48.184;16.298;2024-01-11T02:33:47;39.53;;;16.98;;
43504;SDS011;29098;48.184;16.298;2024-01-11T02:36:13;29.90;;;15.63;;
43504;SDS011;29098;48.184;16.298;2024-01-11T02:38:39;34.03;;;18.15;;
43504;SDS011;29098;48.184;16.298;2024-01-11T02:41:07;33.85;;;16.95;;
43504;SDS011;29098;48.184;16.298;2024-01-11T02:43:33;28.27;;;15.77;;
43504;SDS011;29098;48.184;16.298;2024-01-11T02:46:01;31.73;;;16.05;;
43504;SDS011;29098;48.184;16.298;2024-01-11T02:48:27;36.53;;;17.05;;
43504;SDS011;29098;48.184;16.298;2024-01-11T02:50:54;34.88;;;16.27;;
43504;SDS011;29098;48.184;16.298;2024-01-11T02:53:21;24.55;;;14.55;;
43504;SDS011;29098;48.184;16.298;2024-01-11T02:55:52;32.55;;;15.90;;
43504;SDS011;29098;48.184;16.298;2024-01-11T02:58:18;34.22;;;15.38;;
43504;SDS011;29098;48.184;16.298;2024-01-11T03:00:43;34.45;;;16.15;;
43504;SDS011;29098;48.184;16.298;2024-01-11T03:03:09;33.78;;;16.63;;
43504;SDS011;29098;48.184;16.298;2024-01-11T03:05:34;36.08;;;18.08;;
43504;SDS011;29098;48.184;16.298;2024-01-11T03:08:00;28.45;;;16.60;;
43504;SDS011;29098;48.184;16.298;2024-01-11T03:10:25;36.22;;;16.13;;
43504;SDS011;29098;48.184;16.298;2024-01-11T03:12:51;27.95;;;15.20;;
43504;SDS011;29098;48.184;16.298;2024-01-11T03:15:16;30.17;;;15.27;;
43504;SDS011;29098;48.184;16.298;2024-01-11T03:17:42;28.08;;;15.60;;
43504;SDS011;29098;48.184;16.298;2024-01-11T03:20:08;36.05;;;16.60;;
43504;SDS011;29098;48.184;16.298;2024-01-11T03:22:34;32.65;;;16.85;;
43504;SDS011;29098;48.184;16.298;2024-01-11T03:24:59;33.10;;;15.70;;
43504;SDS011;29098;48.184;16.298;2024-01-11T03:27:25;28.88;;;14.43;;
43504;SDS011;29098;48.184;16.298;2024-01-11T03:29:50;37.88;;;16.90;;
43504;SDS011;29098;48.184;16.298;2024-01-11T03:32:16;29.77;;;15.93;;
43504;SDS011;29098;48.184;16.298;2024-01-11T03:34:42;31.95;;;17.17;;
43504;SDS011;29098;48.184;16.298;2024-01-11T03:37:07;34.47;;;15.20;;
43504;SDS011;29098;48.184;16.298;2024-01-11T03:39:33;31.10;;;16.25;;
43504;SDS011;29098;48.184;16.298;2024-01-11T03:42:00;31.77;;;15.38;;
43504;SDS011;29098;48.184;16.298;2024-01-11T03:44:25;38.25;;;17.55;;
43504;SDS011;29098;48.184;16.298;2024-01-11T03:46:51;28.92;;;15.90;;
43504;SDS011;29098;48.184;16.298;2024-01-11T03:49:16;29.40;;;13.82;;
43504;SDS011;29098;48.184;16.298;2024-01-11T03:51:42;27.20;;;14.60;;
43504;SDS011;29098;48.184;16.298;2024-01-11T03:54:08;34.92;;;16.75;;
43504;SDS011;29098;48.184;16.298;2024-01-11T03:56:36;30.90;;;14.40;;
43504;SDS011;29098;48.184;16.298;2024-01-11T03:59:04;31.00;;;15.70;;
43504;SDS011;29098;48.184;16.298;2024-01-11T04:01:31;32.58;;;15.45;;
43504;SDS011;29098;48.184;16.298;2024-01-11T04:03:56;40.28;;;17.92;;
43504;SDS011;29098;48.184;16.298;2024-01-11T04:06:22;31.65;;;15.07;;
43504;SDS011;29098;48.184;16.298;2024-01-11T04:08:49;35.08;;;16.30;;
43504;SDS011;29098;48.184;16.298;2024-01-11T04:11:15;28.73;;;14.60;;
43504;SDS011;29098;48.184;16.298;2024-01-11T04:13:41;33.70;;;17.40;;
43504;SDS011;29098;48.184;16.298;2024-01-11T04:16:07;36.88;;;16.27;;
43504;SDS011;29098;48.184;16.298;2024-01-11T04:18:33;30.02;;;14.15;;
43504;SDS011;29098;48.184;16.298;2024-01-11T04:20:58;31.73;;;15.98;;
43504;SDS011;29098;48.184;16.298;2024-01-11T04:23:24;34.55;;;15.25;;
43504;SDS011;29098;48.184;16.298;2024-01-11T04:25:50;34.03;;;16.58;;
43504;SDS011;29098;48.184;16.298;2024-01-11T04:28:16;36.13;;;15.90;;
43504;SDS011;29098;48.184;16.298;2024-01-11T04:30:42;33.92;;;16.42;;
43504;SDS011;29098;48.184;16.298;2024-01-11T04:33:08;34.53;;;16.48;;
43504;SDS011;29098;48.184;16.298;2024-01-11T04:35:34;34.33;;;18.27;;
43504;SDS011;29098;48.184;16.298;2024-01-11T04:37:59;32.33;;;16.50;;
43504;SDS011;29098;48.184;16.298;2024-01-11T04:40:25;35.60;;;18.38;;
43504;SDS011;29098;48.184;16.298;2024-01-11T04:42:51;31.25;;;17.23;;
43504;SDS011;29098;48.184;16.298;2024-01-11T04:45:17;33.38;;;16.08;;
43504;SDS011;29098;48.184;16.298;2024-01-11T04:47:42;33.65;;;17.70;;
43504;SDS011;29098;48.184;16.298;2024-01-11T04:50:08;39.63;;;17.33;;
43504;SDS011;29098;48.184;16.298;2024-01-11T04:52:34;38.90;;;17.65;;
43504;SDS011;29098;48.184;16.298;2024-01-11T04:54:59;35.67;;;16.83;;
43504;SDS011;29098;48.184;16.298;2024-01-11T04:57:25;38.72;;;17.33;;
43504;SDS011;29098;48.184;16.298;2024-01-11T04:59:50;33.47;;;17.98;;
43504;SDS011;29098;48.184;16.298;2024-01-11T05:02:16;34.38;;;16.55;;
43504;SDS011;29098;48.184;16.298;2024-01-11T05:04:41;36.97;;;18.13;;
43504;SDS011;29098;48.184;16.298;2024-01-11T05:07:07;34.05;;;15.88;;
43504;SDS011;29098;48.184;16.298;2024-01-11T05:09:32;35.60;;;17.27;;
43504;SDS011;29098;48.184;16.298;2024-01-11T05:11:58;36.70;;;18.27;;
43504;SDS011;29098;48.184;16.298;2024-01-11T05:14:23;31.95;;;15.93;;
43504;SDS011;29098;48.184;16.298;2024-01-11T05:16:49;29.63;;;17.02;;
43504;SDS011;29098;48.184;16.298;2024-01-11T05:19:15;33.47;;;17.08;;
43504;SDS011;29098;48.184;16.298;2024-01-11T05:21:40;41.08;;;19.50;;
43504;SDS011;29098;48.184;16.298;2024-01-11T05:24:06;35.88;;;18.73;;
43504;SDS011;29098;48.184;16.298;2024-01-11T05:26:32;33.17;;;17.63;;
43504;SDS011;29098;48.184;16.298;2024-01-11T05:28:57;33.35;;;18.55;;
43504;SDS011;29098;48.184;16.298;2024-01-11T05:31:23;35.42;;;18.10;;
43504;SDS011;29098;48.184;16.298;2024-01-11T05:33:48;43.15;;;21.05;;
43504;SDS011;29098;48.184;16.298;2024-01-11T05:36:16;36.72;;;19.15;;
43504;SDS011;29098;48.184;16.298;2024-01-11T05:38:41;36.30;;;17.52;;
43504;SDS011;29098;48.184;16.298;2024-01-11T05:41:07;37.92;;;17.92;;
43504;SDS011;29098;48.184;16.298;2024-01-11T05:43:33;35.28;;;18.20;;
43504;SDS011;29098;48.184;16.298;2024-01-11T05:45:58;42.40;;;19.60;;
43504;SDS011;29098;48.184;16.298;2024-01-11T05:48:24;37.35;;;18.45;;
43504;SDS011;29098;48.184;16.298;2024-01-11T05:50:50;39.92;;;19.85;;
43504;SDS011;29098;48.184;16.298;2024-01-11T05:53:15;46.28;;;19.85;;
43504;SDS011;29098;48.184;16.298;2024-01-11T05:55:45;44.22;;;18.73;;
43504;SDS011;29098;48.184;16.298;2024-01-11T05:58:10;41.00;;;20.05;;
43504;SDS011;29098;48.184;16.298;2024-01-11T06:00:36;42.67;;;18.77;;
43504;SDS011;29098;48.184;16.298;2024-01-11T06:03:02;41.08;;;19.60;;
43504;SDS011;29098;48.184;16.298;2024-01-11T06:05:28;42.65;;;19.27;;
43504;SDS011;29098;48.184;16.298;2024-01-11T06:07:53;42.38;;;20.60;;
43504;SDS011;29098;48.184;16.298;2024-01-11T06:10:19;38.45;;;18.42;;
43504;SDS011;29098;48.184;16.298;2024-01-11T06:12:44;34.33;;;17.30;;
43504;SDS011;29098;48.184;16.298;2024-01-11T06:15:10;40.45;;;20.20;;
43504;SDS011;29098;48.184;16.298;2024-01-11T06:17:36;42.67;;;20.42;;
43504;SDS011;29098;48.184;16.298;2024-01-11T06:20:01;38.63;;;19.35;;
43504;SDS011;29098;48.184;16.298;2024-01-11T06:22:28;36.42;;;19.40;;
43504;SDS011;29098;48.184;16.298;2024-01-11T06:24:54;46.92;;;20.73;;
43504;SDS011;29098;48.184;16.298;2024-01-11T06:27:19;42.63;;;21.17;;
43504;SDS011;29098;48.184;16.298;2024-01-11T06:29:45;39.72;;;20.02;;
43504;SDS011;29098;48.184;16.298;2024-01-11T06:32:11;41.50;;;21.70;;
43504;SDS011;29098;48.184;16.298;2024-01-11T06:34:36;40.30;;;18.27;;
43504;SDS011;29098;48.184;16.298;2024-01-11T06:37:02;40.38;;;20.40;;
43504;SDS011;29098;48.184;16.298;2024-01-11T06:39:28;37.75;;;21.17;;
43504;SDS011;29098;48.184;16.298;2024-01-11T06:41:54;44.63;;;20.92;;
43504;SDS011;29098;48.184;16.298;2024-01-11T06:44:20;38.60;;;19.83;;
43504;SDS011;29098;48.184;16.298;2024-01-11T06:46:45;39.33;;;20.48;;
43504;SDS011;29098;48.184;16.298;2024-01-11T06:49:11;45.10;;;20.63;;
43504;SDS011;29098;48.184;16.298;2024-01-11T06:51:37;41.80;;;19.65;;
43504;SDS011;29098;48.184;16.298;2024-01-11T06:54:04;41.08;;;22.02;;
43504;SDS011;29098;48.184;16.298;2024-01-11T06:56:30;34.35;;;18.55;;
43504;SDS011;29098;48.184;16.298;2024-01-11T06:58:56;51.47;;;22.05;;
43504;SDS011;29098;48.184;16.298;2024-01-11T07:01:21;39.63;;;18.27;;
43504;SDS011;29098;48.184;16.298;2024-01-11T07:03:48;44.03;;;21.52;;
43504;SDS011;29098;48.184;16.298;2024-01-11T07:06:14;42.33;;;19.95;;
43504;SDS011;29098;48.184;16.298;2024-01-11T07:08:40;41.40;;;20.40;;
43504;SDS011;29098;48.184;16.298;2024-01-11T07:11:06;38.70;;;20.15;;
43504;SDS011;29098;48.184;16.298;2024-01-11T07:13:32;39.60;;;20.58;;
43504;SDS011;29098;48.184;16.298;2024-01-11T07:15:58;39.80;;;19.95;;
43504;SDS011;29098;48.184;16.298;2024-01-11T07:18:24;45.83;;;23.63;;
43504;SDS011;29098;48.184;16.298;2024-01-11T07:20:50;48.38;;;20.58;;
43504;SDS011;29098;48.184;16.298;2024-01-11T07:23:17;40.58;;;20.83;;
43504;SDS011;29098;48.184;16.298;2024-01-11T07:25:45;47.53;;;21.73;;
43504;SDS011;29098;48.184;16.298;2024-01-11T07:28:11;42.53;;;19.75;;
43504;SDS011;29098;48.184;16.298;2024-01-11T07:30:36;43.30;;;20.67;;
43504;SDS011;29098;48.184;16.298;2024-01-11T07:33:02;45.95;;;21.92;;
43504;SDS011;29098;48.184;16.298;2024-01-11T07:35:29;43.45;;;22.80;;
43504;SDS011;29098;48.184;16.298;2024-01-11T07:37:57;42.95;;;21.92;;
43504;SDS011;29098;48.184;16.298;2024-01-11T07:40:23;45.78;;;20.90;;
43504;SDS011;29098;48.184;16.298;2024-01-11T07:42:49;49.22;;;22.35;;
43504;SDS011;29098;48.184;16.298;2024-01-11T07:45:14;44.20;;;21.80;;
43504;SDS011;29098;48.184;16.298;2024-01-11T07:47:40;41.55;;;21.70;;
43504;SDS011;29098;48.184;16.298;2024-01-11T07:50:06;48.35;;;21.73;;
43504;SDS011;29098;48.184;16.298;2024-01-11T07:52:32;44.72;;;23.23;;
43504;SDS011;29098;48.184;16.298;2024-01-11T07:54:58;39.22;;;22.05;;
43504;SDS011;29098;48.184;16.298;2024-01-11T07:57:32;41.88;;;21.30;;
43504;SDS011;29098;48.184;16.298;2024-01-11T07:59:59;42.33;;;21.15;;
43504;SDS011;29098;48.184;16.298;2024-01-11T08:02:25;41.67;;;23.65;;
43504;SDS011;29098;48.184;16.298;2024-01-11T08:04:50;46.25;;;23.38;;
43504;SDS011;29098;48.184;16.298;2024-01-11T08:07:16;43.60;;;20.50;;
43504;SDS011;29098;48.184;16.298;2024-01-11T08:09:42;41.08;;;21.45;;
43504;SDS011;29098;48.184;16.298;2024-01-11T08:12:11;42.88;;;22.42;;
43504;SDS011;29098;48.184;16.298;2024-01-11T08:14:38;49.35;;;22.52;;
43504;SDS011;29098;48.184;16.298;2024-01-11T08:17:04;43.97;;;23.25;;
43504;SDS011;29098;48.184;16.298;2024-01-11T08:19:30;47.75;;;22.05;;
43504;SDS011;29098;48.184;16.298;2024-01-11T08:21:56;41.92;;;23.00;;
43504;SDS011;29098;48.184;16.298;2024-01-11T08:24:21;45.90;;;23.50;;
43504;SDS011;29098;48.184;16.298;2024-01-11T08:26:47;43.13;;;20.20;;
43504;SDS011;29098;48.184;16.298;2024-01-11T08:29:13;50.10;;;24.40;;
43504;SDS011;29098;48.184;16.298;2024-01-11T08:31:39;47.47;;;21.65;;
43504;SDS011;29098;48.184;16.298;2024-01-11T08:34:05;43.35;;;21.60;;
43504;SDS011;29098;48.184;16.298;2024-01-11T08:36:31;51.03;;;24.27;;
43504;SDS011;29098;48.184;16.298;2024-01-11T08:38:59;49.15;;;22.45;;
43504;SDS011;29098;48.184;16.298;2024-01-11T08:41:25;45.05;;;23.20;;
43504;SDS011;29098;48.184;16.298;2024-01-11T08:43:51;43.30;;;22.48;;
43504;SDS011;29098;48.184;16.298;2024-01-11T08:46:26;47.53;;;23.10;;
43504;SDS011;29098;48.184;16.298;2024-01-11T08:48:52;46.33;;;22.63;;
43504;SDS011;29098;48.184;16.298;2024-01-11T08:51:18;51.10;;;21.15;;
43504;SDS011;29098;48.184;16.298;2024-01-11T08:53:44;47.13;;;22.60;;
43504;SDS011;29098;48.184;16.298;2024-01-11T08:56:10;46.22;;;24.40;;
43504;SDS011;29098;48.184;16.298;2024-01-11T08:58:35;42.10;;;20.90;;
43504;SDS011;29098;48.184;16.298;2024-01-11T09:01:01;49.45;;;23.92;;
43504;SDS011;29098;48.184;16.298;2024-01-11T09:03:28;48.45;;;23.15;;
43504;SDS011;29098;48.184;16.298;2024-01-11T09:05:54;46.60;;;22.55;;
43504;SDS011;29098;48.184;16.298;2024-01-11T09:08:22;45.40;;;21.83;;
43504;SDS011;29098;48.184;16.298;2024-01-11T09:10:48;43.78;;;21.73;;
43504;SDS011;29098;48.184;16.298;2024-01-11T09:13:14;43.92;;;22.23;;
43504;SDS011;29098;48.184;16.298;2024-01-11T09:15:43;44.70;;;20.83;;
43504;SDS011;29098;48.184;16.298;2024-01-11T09:18:08;52.53;;;22.40;;
43504;SDS011;29098;48.184;16.298;2024-01-11T09:20:35;43.72;;;22.88;;
43504;SDS011;29098;48.184;16.298;2024-01-11T09:23:01;43.92;;;21.55;;
43504;SDS011;29098;48.184;16.298;2024-01-11T09:25:32;42.25;;;23.05;;
43504;SDS011;29098;48.184;16.298;2024-01-11T09:27:58;44.90;;;21.58;;
43504;SDS011;29098;48.184;16.298;2024-01-11T09:30:24;49.83;;;21.33;;
43504;SDS011;29098;48.184;16.298;2024-01-11T09:32:49;44.95;;;21.50;;
43504;SDS011;29098;48.184;16.298;2024-01-11T09:35:15;38.70;;;19.85;;
43504;SDS011;29098;48.184;16.298;2024-01-11T09:37:41;39.88;;;21.08;;
43504;SDS011;29098;48.184;16.298;2024-01-11T09:40:07;44.40;;;22.25;;
43504;SDS011;29098;48.184;16.298;2024-01-11T09:42:36;44.45;;;21.25;;
43504;SDS011;29098;48.184;16.298;2024-01-11T09:45:02;42.97;;;19.42;;
43504;SDS011;29098;48.184;16.298;2024-01-11T09:47:31;46.55;;;21.02;;
43504;SDS011;29098;48.184;16.298;2024-01-11T09:49:58;42.15;;;21.48;;
43504;SDS011;29098;48.184;16.298;2024-01-11T09:52:27;44.03;;;20.60;;
43504;SDS011;29098;48.184;16.298;2024-01-11T09:54:53;38.50;;;21.45;;
43504;SDS011;29098;48.184;16.298;2024-01-11T09:57:23;42.15;;;19.77;;
43504;SDS011;29098;48.184;16.298;2024-01-11T09:59:51;43.28;;;19.58;;
43504;SDS011;29098;48.184;16.298;2024-01-11T10:02:20;45.25;;;21.83;;
43504;SDS011;29098;48.184;16.298;2024-01-11T10:04:47;44.75;;;22.08;;
43504;SDS011;29098;48.184;16.298;2024-01-11T10:07:13;37.15;;;19.08;;
43504;SDS011;29098;48.184;16.298;2024-01-11T10:09:43;48.88;;;23.73;;
43504;SDS011;29098;48.184;16.298;2024-01-11T10:12:09;42.53;;;21.58;;
43504;SDS011;29098;48.184;16.298;2024-01-11T10:14:35;40.20;;;20.95;;
43504;SDS011;29098;48.184;16.298;2024-01-11T10:17:00;38.25;;;20.70;;
43504;SDS011;29098;48.184;16.298;2024-01-11T10:19:26;39.67;;;21.52;;
43504;SDS011;29098;48.184;16.298;2024-01-11T10:21:51;40.90;;;21.30;;
43504;SDS011;29098;48.184;16.298;2024-01-11T10:24:18;49.25;;;23.60;;
43504;SDS011;29098;48.184;16.298;2024-01-11T10:26:45;46.08;;;21.90;;
43504;SDS011;29098;48.184;16.298;2024-01-11T10:29:11;37.72;;;21.40;;
43504;SDS011;29098;48.184;16.298;2024-01-11T10:31:38;44.13;;;21.60;;
43504;SDS011;29098;48.184;16.298;2024-01-11T10:34:03;37.42;;;20.80;;
43504;SDS011;29098;48.184;16.298;2024-01-11T10:36:32;37.75;;;20.92;;
43504;SDS011;29098;48.184;16.298;2024-01-11T10:38:59;44.28;;;22.80;;
43504;SDS011;29098;48.184;16.298;2024-01-11T10:41:30;39.30;;;19.23;;
43504;SDS011;29098;48.184;16.298;2024-01-11T10:44:03;42.70;;;23.48;;
43504;SDS011;29098;48.184;16.298;2024-01-11T10:46:29;44.42;;;22.65;;
43504;SDS011;29098;48.184;16.298;2024-01-11T10:48:58;41.00;;;20.23;;
43504;SDS011;29098;48.184;16.298;2024-01-11T10:51:28;44.13;;;22.15;;
43504;SDS011;29098;48.184;16.298;2024-01-11T10:53:57;45.75;;;21.88;;
43504;SDS011;29098;48.184;16.298;2024-01-11T10:56:25;37.38;;;21.77;;
43504;SDS011;29098;48.184;16.298;2024-01-11T10:58:53;39.60;;;19.58;;
43504;SDS011;29098;48.184;16.298;2024-01-11T11:01:20;40.70;;;20.75;;
43504;SDS011;29098;48.184;16.298;2024-01-11T11:03:49;36.30;;;21.63;;
43504;SDS011;29098;48.184;16.298;2024-01-11T11:06:17;35.13;;;20.13;;
43504;SDS011;29098;48.184;16.298;2024-01-11T11:08:43;39.55;;;21.20;;
43504;SDS011;29098;48.184;16.298;2024-01-11T11:11:10;40.78;;;20.50;;
43504;SDS011;29098;48.184;16.298;2024-01-11T11:13:36;39.92;;;21.85;;
43504;SDS011;29098;48.184;16.298;2024-01-11T11:16:02;38.58;;;20.90;;
43504;SDS011;29098;48.184;16.298;2024-01-11T11:18:31;35.95;;;19.27;;
43504;SDS011;29098;48.184;16.298;2024-01-11T11:21:00;38.20;;;21.75;;
43504;SDS011;29098;48.184;16.298;2024-01-11T11:23:25;36.75;;;20.27;;
43504;SDS011;29098;48.184;16.298;2024-01-11T11:25:51;35.08;;;17.73;;
43504;SDS011;29098;48.184;16.298;2024-01-11T11:28:20;37.97;;;20.30;;
43504;SDS011;29098;48.184;16.298;2024-01-11T11:30:47;39.38;;;21.90;;
43504;SDS011;29098;48.184;16.298;2024-01-11T11:33:22;35.67;;;20.52;;
43504;SDS011;29098;48.184;16.298;2024-01-11T11:35:52;36.00;;;20.90;;
43504;SDS011;29098;48.184;16.298;2024-01-11T11:38:28;35.38;;;19.70;;
43504;SDS011;29098;48.184;16.298;2024-01-11T11:40:56;44.53;;;21.85;;
43504;SDS011;29098;48.184;16.298;2024-01-11T11:43:23;36.78;;;18.52;;
43504;SDS011;29098;48.184;16.298;2024-01-11T11:45:52;35.53;;;19.52;;
43504;SDS011;29098;48.184;16.298;2024-01-11T11:53:36;38.63;;;18.85;;
43504;SDS011;29098;48.184;16.298;2024-01-11T11:56:03;34.70;;;19.88;;
43504;SDS011;29098;48.184;16.298;2024-01-11T11:58:30;35.60;;;19.60;;
43504;SDS011;29098;48.184;16.298;2024-01-11T12:00:57;31.48;;;18.63;;
43504;SDS011;29098;48.184;16.298;2024-01-11T12:03:31;37.70;;;20.17;;
43504;SDS011;29098;48.184;16.298;2024-01-11T12:05:58;33.35;;;17.73;;
43504;SDS011;29098;48.184;16.298;2024-01-11T12:08:25;32.97;;;19.38;;
43504;SDS011;29098;48.184;16.298;2024-01-11T12:10:51;33.83;;;17.48;;
43504;SDS011;29098;48.184;16.298;2024-01-11T12:13:17;37.40;;;20.52;;
43504;SDS011;29098;48.184;16.298;2024-01-11T12:15:43;31.13;;;17.42;;
43504;SDS011;29098;48.184;16.298;2024-01-11T12:18:08;33.33;;;18.58;;
43504;SDS011;29098;48.184;16.298;2024-01-11T12:20:34;34.45;;;18.13;;
43504;SDS011;29098;48.184;16.298;2024-01-11T12:23:00;33.65;;;18.17;;
43504;SDS011;29098;48.184;16.298;2024-01-11T12:25:27;34.20;;;19.33;;
43504;SDS011;29098;48.184;16.298;2024-01-11T12:27:53;31.85;;;18.45;;
43504;SDS011;29098;48.184;16.298;2024-01-11T12:30:18;37.95;;;17.92;;
43504;SDS011;29098;48.184;16.298;2024-01-11T12:32:44;36.22;;;18.73;;
43504;SDS011;29098;48.184;16.298;2024-01-11T12:35:10;30.75;;;16.33;;
43504;SDS011;29098;48.184;16.298;2024-01-11T12:37:36;32.90;;;17.38;;
43504;SDS011;29098;48.184;16.298;2024-01-11T12:40:01;32.58;;;17.33;;
43504;SDS011;29098;48.184;16.298;2024-01-11T12:42:27;34.83;;;18.13;;
43504;SDS011;29098;48.184;16.298;2024-01-11T12:44:52;32.90;;;19.05;;
43504;SDS011;29098;48.184;16.298;2024-01-11T12:47:18;31.00;;;18.13;;
43504;SDS011;29098;48.184;16.298;2024-01-11T12:49:44;36.05;;;18.95;;
43504;SDS011;29098;48.184;16.298;2024-01-11T12:52:19;33.97;;;17.40;;
43504;SDS011;29098;48.184;16.298;2024-01-11T12:54:45;36.80;;;19.33;;
43504;SDS011;29098;48.184;16.298;2024-01-11T12:57:20;32.38;;;17.05;;
43504;SDS011;29098;48.184;16.298;2024-01-11T13:02:12;35.20;;;17.42;;
43504;SDS011;29098;48.184;16.298;2024-01-11T13:04:40;31.95;;;17.70;;
43504;SDS011;29098;48.184;16.298;2024-01-11T13:07:06;38.55;;;19.75;;
43504;SDS011;29098;48.184;16.298;2024-01-11T13:09:32;30.65;;;17.70;;
43504;SDS011;29098;48.184;16.298;2024-01-11T13:11:58;37.83;;;19.17;;
43504;SDS011;29098;48.184;16.298;2024-01-11T13:14:24;33.45;;;19.70;;
43504;SDS011;29098;48.184;16.298;2024-01-11T13:16:50;35.22;;;19.35;;
43504;SDS011;29098;48.184;16.298;2024-01-11T13:19:16;33.28;;;17.45;;
43504;SDS011;29098;48.184;16.298;2024-01-11T13:21:41;35.13;;;17.92;;
43504;SDS011;29098;48.184;16.298;2024-01-11T13:24:07;34.10;;;18.25;;
43504;SDS011;29098;48.184;16.298;2024-01-11T13:26:33;35.47;;;19.08;;
43504;SDS011;29098;48.184;16.298;2024-01-11T13:29:02;38.63;;;19.95;;
43504;SDS011;29098;48.184;16.298;2024-01-11T13:31:27;32.92;;;18.38;;
43504;SDS011;29098;48.184;16.298;2024-01-11T13:33:53;34.22;;;17.20;;
43504;SDS011;29098;48.184;16.298;2024-01-11T13:36:20;39.15;;;20.20;;
43504;SDS011;29098;48.184;16.298;2024-01-11T13:38:45;41.40;;;21.25;;
43504;SDS011;29098;48.184;16.298;2024-01-11T13:41:11;37.88;;;20.05;;
43504;SDS011;29098;48.184;16.298;2024-01-11T13:43:36;37.10;;;21.17;;
43504;SDS011;29098;48.184;16.298;2024-01-11T13:46:02;34.78;;;20.00;;
43504;SDS011;29098;48.184;16.298;2024-01-11T13:48:31;34.65;;;19.65;;
43504;SDS011;29098;48.184;16.298;2024-01-11T13:50:57;33.30;;;19.15;;
43504;SDS011;29098;48.184;16.298;2024-01-11T13:53:27;29.85;;;17.13;;
43504;SDS011;29098;48.184;16.298;2024-01-11T13:55:54;33.33;;;19.25;;
43504;SDS011;29098;48.184;16.298;2024-01-11T13:58:20;34.05;;;17.75;;
43504;SDS011;29098;48.184;16.298;2024-01-11T14:00:46;35.28;;;19.05;;
43504;SDS011;29098;48.184;16.298;2024-01-11T14:03:12;30.90;;;18.75;;
43504;SDS011;29098;48.184;16.298;2024-01-11T14:05:37;36.47;;;19.50;;
43504;SDS011;29098;48.184;16.298;2024-01-11T14:08:03;36.33;;;19.13;;
43504;SDS011;29098;48.184;16.298;2024-01-11T14:10:32;36.90;;;18.00;;